Weather History for Big Rapids, MI

Change the Weather History Date:

Friday, February 17, 2012

  Actual Average Record
Temperature  
Mean Temperature 34 °F -  
Max Temperature 39 °F 31 °F 51 °F (2011)
Min Temperature 28 °F 11 °F -23 °F (1979)
Degree Days  
Heating Degree Days 32    
Moisture  
Dew Point 26 °F    
Average Humidity 77    
Maximum Humidity 100    
Minimum Humidity 48    
Precipitation  
Precipitation 0.00 in - - ()
Sea Level Pressure  
Sea Level Pressure 30.02 in    
Wind  
Wind Speed 6 mph (West)    
Max Wind Speed 14 mph    
Max Gust Speed 21 mph    
Visibility 9 miles    
Events Snow    
Averages and records for this station are not official NWS values.
T = Trace of Precipitation, MM = Missing Value Source: NWS Daily Summary

Daily Weather History Graph

Daily Weather History Graph

Search for Another Location

Airport:

Trip Planner

Search our weather history database for the weather conditions in past years. The results will help you decide how hot, cold, wet, or windy it might be!

Date:

Astronomy

Feb. 17, 2012 Rise Set
Actual Time 7:38 AM EST 6:14 PM EST
Civil Twilight 7:09 AM EST 6:43 PM EST
Nautical Twilight 6:35 AM EST 7:17 PM EST
Astronomical Twilight 6:02 AM EST 7:50 PM EST
Moon 4:35 AM EST (2/17) 2:00 PM EST (2/17)
Length of Visible Light 11h 34m
Length of Day
10h 35m
Waning Crescent, 19% of the Moon is Illuminated
Feb 17
Waning Crescent
Feb 21
New
Feb 29
First Quarter
Mar 8
Full
Mar 14
Last Quarter

Hourly Weather History & Observations

Time (EST) Temp. Windchill Dew Point Humidity Pressure Visibility Wind Dir Wind Speed Gust Speed Precip Events Conditions
12:14 AM 30.4 °F 24.5 °F 26.6 °F 86% 29.99 in 10.0 mi West 5.8 mph - N/A   Mostly Cloudy
12:34 AM 29.3 °F 24.3 °F 25.9 °F 87% 29.99 in 10.0 mi WNW 4.6 mph - N/A   Mostly Cloudy
12:54 AM 29.8 °F 24.9 °F 26.2 °F 86% 29.99 in 10.0 mi West 4.6 mph - N/A   Mostly Cloudy
1:14 AM 30.7 °F 24.9 °F 25.7 °F 82% 29.99 in 10.0 mi WNW 5.8 mph - N/A   Overcast
1:35 AM 28.9 °F 22.8 °F 24.6 °F 84% 29.99 in 10.0 mi WNW 5.8 mph - N/A   Scattered Clouds
1:54 AM 29.7 °F 24.7 °F 25.2 °F 83% 29.98 in 10.0 mi WNW 4.6 mph - N/A   Mostly Cloudy
2:14 AM 28.4 °F 23.3 °F 24.6 °F 86% 29.98 in 10.0 mi WNW 4.6 mph - N/A   Scattered Clouds
2:35 AM 28.2 °F 22.0 °F 24.3 °F 85% 29.99 in 10.0 mi West 5.8 mph - N/A   Clear
2:54 AM 29.8 °F 24.9 °F 25.2 °F 83% 29.99 in 10.0 mi West 4.6 mph - N/A   Scattered Clouds
3:14 AM 30.9 °F 25.2 °F 25.2 °F 79% 29.99 in 10.0 mi West 5.8 mph - N/A   Scattered Clouds
3:34 AM 30.4 °F 23.6 °F 24.8 °F 80% 29.99 in 10.0 mi West 6.9 mph - N/A   Clear
3:54 AM 30.2 °F 23.4 °F 24.8 °F 80% 29.99 in 10.0 mi West 6.9 mph - N/A   Scattered Clouds
4:14 AM 30.6 °F 24.7 °F 25.2 °F 80% 29.99 in 10.0 mi West 5.8 mph - N/A   Overcast
4:34 AM 30.7 °F 24.1 °F 25.5 °F 81% 29.99 in 10.0 mi West 6.9 mph - N/A   Overcast
4:54 AM 31.1 °F 25.4 °F 25.7 °F 80% 30.00 in 10.0 mi West 5.8 mph - N/A   Overcast
5:14 AM 31.5 °F 24.9 °F 25.7 °F 79% 30.01 in 10.0 mi West 6.9 mph - N/A   Overcast
5:34 AM 31.5 °F 24.9 °F 25.7 °F 79% 30.01 in 10.0 mi West 6.9 mph - N/A   Overcast
5:54 AM 31.8 °F 25.4 °F 26.1 °F 79% 30.01 in 10.0 mi West 6.9 mph - N/A   Overcast
6:14 AM 31.6 °F 27.0 °F 26.1 °F 80% 30.02 in 10.0 mi West 4.6 mph - N/A   Overcast
6:35 AM 30.6 °F 24.7 °F 25.5 °F 82% 30.02 in 10.0 mi West 5.8 mph - N/A   Scattered Clouds
6:54 AM 30.4 °F 25.6 °F 25.3 °F 82% 30.02 in 10.0 mi West 4.6 mph - N/A   Scattered Clouds
7:14 AM 29.3 °F 23.2 °F 24.8 °F 83% 30.03 in 10.0 mi West 5.8 mph - N/A   Clear
7:34 AM 29.1 °F 23.0 °F 24.8 °F 84% 30.03 in 10.0 mi West 5.8 mph - N/A   Clear
8:14 AM 28.2 °F 23.1 °F 24.6 °F 86% 30.04 in 10.0 mi West 4.6 mph - N/A   Clear
8:34 AM 29.3 °F 23.2 °F 24.8 °F 83% 30.04 in 10.0 mi West 5.8 mph - N/A   Scattered Clouds
8:54 AM 30.7 °F 24.9 °F 25.2 °F 80% 30.05 in 10.0 mi WNW 5.8 mph - N/A   Clear
9:15 AM 31.3 °F 23.3 °F 25.3 °F 79% 30.05 in 10.0 mi WNW 9.2 mph - N/A   Clear
9:34 AM 32.0 °F 24.2 °F 25.7 °F 78% 30.06 in 10.0 mi WNW 9.2 mph - N/A   Clear
9:54 AM 32.2 °F 23.8 °F 25.9 °F 78% 30.06 in 10.0 mi WNW 10.4 mph - N/A   Clear
10:15 AM 33.3 °F 25.7 °F 26.2 °F 75% 30.06 in 10.0 mi WNW 9.2 mph - N/A   Clear
10:34 AM 34.2 °F 26.2 °F 25.7 °F 71% 30.06 in 10.0 mi WNW 10.4 mph - N/A   Clear
10:54 AM 34.7 °F 26.9 °F 25.2 °F 68% 30.06 in 10.0 mi NW 10.4 mph - N/A   Clear
11:15 AM 35.4 °F 29.0 °F 26.2 °F 69% 30.06 in 10.0 mi WNW 8.1 mph - N/A   Clear
11:34 AM 35.8 °F 28.3 °F 25.2 °F 65% 30.06 in 10.0 mi West 10.4 mph - N/A   Clear
11:55 AM 35.8 °F 28.8 °F 24.6 °F 64% 30.06 in 10.0 mi WNW 9.2 mph - N/A   Clear
12:14 PM 37.2 °F 30.6 °F 22.6 °F 56% 30.06 in 10.0 mi West 9.2 mph 16.1 mph N/A   Clear
12:34 PM 37.8 °F 30.7 °F 23.5 °F 57% 30.05 in 10.0 mi West 10.4 mph - N/A   Clear
12:55 PM 37.6 °F 33.1 °F 23.2 °F 56% 30.05 in 10.0 mi West 5.8 mph - N/A   Scattered Clouds
1:14 PM 38.3 °F 31.9 °F 21.6 °F 51% 30.04 in 10.0 mi West 9.2 mph - N/A   Mostly Cloudy
1:34 PM 38.5 °F 32.7 °F 21.9 °F 51% 30.04 in 10.0 mi WSW 8.1 mph - N/A   Mostly Cloudy
1:55 PM 38.5 °F 31.6 °F 20.3 °F 48% 30.03 in 10.0 mi West 10.4 mph - N/A   Scattered Clouds
2:14 PM 39.0 °F 33.4 °F 22.3 °F 51% 30.03 in 10.0 mi West 8.1 mph - N/A   Scattered Clouds
2:34 PM 38.7 °F 31.4 °F 21.2 °F 50% 30.03 in 10.0 mi WSW 11.5 mph 17.3 mph N/A   Overcast
2:55 PM 37.4 °F 30.3 °F 21.0 °F 52% 30.03 in 10.0 mi SW 10.4 mph - N/A   Overcast
3:14 PM 36.3 °F 27.5 °F 22.5 °F 57% 30.03 in 10.0 mi SW 13.8 mph 20.7 mph N/A   Overcast
3:34 PM 34.9 °F 26.2 °F 24.4 °F 66% 30.04 in 10.0 mi SW 12.7 mph 19.6 mph N/A   Overcast
3:55 PM 34.7 °F 30.6 °F 25.7 °F 70% 30.03 in 10.0 mi WSW 4.6 mph - N/A   Overcast
4:14 PM 33.8 °F 27.0 °F 28.2 °F 80% 30.03 in 10.0 mi WSW 8.1 mph - N/A   Overcast
4:34 PM 32.9 °F 26.7 °F 28.9 °F 85% 30.03 in 5.0 mi WSW 6.9 mph - N/A Snow Light Snow
4:55 PM 32.0 °F 27.5 °F 30.0 °F 92% 30.03 in 1.2 mi SSW 4.6 mph - N/A Snow Light Snow
5:14 PM 31.6 °F 25.1 °F 31.5 °F 99% 30.01 in 2.5 mi South 6.9 mph - N/A Snow Light Snow
5:34 PM 31.5 °F 26.8 °F 31.1 °F 99% 30.02 in 3.0 mi South 4.6 mph - N/A Snow Light Snow
5:55 PM 31.1 °F 27.7 °F 31.1 °F 100% 30.01 in 4.0 mi South 3.5 mph - N/A Snow Light Snow
6:14 PM 31.1 °F 27.7 °F 31.1 °F 100% 30.01 in 10.0 mi SSE 3.5 mph - N/A Snow Light Snow
6:34 PM 31.1 °F 25.4 °F 31.1 °F 100% 30.01 in 7.0 mi South 5.8 mph - N/A Snow Light Snow
6:55 PM 31.1 °F 25.4 °F 31.1 °F 100% 30.00 in 10.0 mi South 5.8 mph - N/A   Overcast
7:14 PM 31.1 °F 27.7 °F 31.1 °F 100% 29.99 in 3.0 mi South 3.5 mph - N/A Snow Light Snow
7:34 PM 31.1 °F 27.7 °F 31.1 °F 100% 29.99 in 2.5 mi SSE 3.5 mph - N/A Snow Light Snow
7:54 PM 31.1 °F 26.4 °F 31.1 °F 100% 29.99 in 3.0 mi SSE 4.6 mph - N/A Snow Light Snow
8:14 PM 31.1 °F - 31.1 °F 100% 29.98 in 5.0 mi Calm Calm - N/A Snow Light Snow
8:34 PM 30.9 °F - 30.9 °F 100% 29.97 in 7.0 mi Calm Calm - N/A Snow Light Snow
8:54 PM 31.1 °F - 31.1 °F 100% 29.96 in 4.0 mi Calm Calm - N/A Snow Light Snow
9:14 PM 30.9 °F - 30.9 °F 100% 29.96 in 1.5 mi Calm Calm - N/A Snow Light Snow
9:34 PM 30.7 °F - 30.7 °F 100% 29.95 in 7.0 mi Calm Calm - N/A   Overcast
9:54 PM 30.9 °F - 30.9 °F 100% 29.95 in 5.0 mi Calm Calm - N/A Snow Light Snow
10:14 PM 30.7 °F - 30.7 °F 100% 29.94 in 7.0 mi Calm Calm - N/A Snow Light Snow
10:34 PM 30.7 °F - 30.7 °F 100% 29.93 in 7.0 mi Calm Calm - N/A Snow Light Snow
10:55 PM 30.7 °F - 30.7 °F 100% 29.92 in 10.0 mi Calm Calm - N/A   Overcast
11:14 PM 30.6 °F - 30.6 °F 100% 29.91 in 10.0 mi Calm Calm - N/A   Overcast
11:34 PM 29.5 °F - 29.5 °F 100% 29.91 in 7.0 mi Calm Calm - N/A   Overcast
11:55 PM 29.8 °F - 29.8 °F 100% 29.90 in 7.0 mi Calm Calm - N/A   Overcast